createdAt,value
2017-10-06T00:01:37.094Z,100109.34
2017-10-06T00:04:44.072Z,100095.90
2017-10-06T00:07:48.359Z,100105.91
2017-10-06T00:10:53.697Z,100114.16
2017-10-06T00:13:56.897Z,100107.52
2017-10-06T00:16:59.834Z,100107.22
2017-10-06T00:20:04.674Z,100117.09
2017-10-06T00:26:19.193Z,100118.30
2017-10-06T00:29:23.375Z,100101.77
2017-10-06T00:32:29.213Z,100077.17
2017-10-06T00:35:35.631Z,100105.53
2017-10-06T00:38:39.666Z,100121.99
2017-10-06T00:41:47.354Z,100120.48
2017-10-06T00:44:50.848Z,100117.42
2017-10-06T00:47:57.225Z,100118.63
2017-10-06T00:51:00.642Z,100124.25
2017-10-06T00:54:03.484Z,100117.70
2017-10-06T00:57:06.307Z,100115.64
2017-10-06T01:00:12.494Z,100118.16
2017-10-06T01:03:17.070Z,100097.11
2017-10-06T01:06:21.621Z,100120.20
2017-10-06T01:09:25.783Z,100131.36
2017-10-06T01:12:29.841Z,100129.02
2017-10-06T01:15:33.396Z,100133.14
2017-10-06T01:18:36.519Z,100127.77
2017-10-06T01:21:40.398Z,100135.94
2017-10-06T01:24:44.272Z,100116.06
2017-10-06T01:27:51.668Z,100123.61
2017-10-06T01:30:54.826Z,100115.76
2017-10-06T01:33:56.657Z,100106.94
2017-10-06T01:36:58.275Z,100111.15
2017-10-06T01:40:02.266Z,100104.01
2017-10-06T01:43:06.735Z,100110.91
2017-10-06T01:46:11.024Z,100092.44
2017-10-06T01:49:13.833Z,100089.28
2017-10-06T01:52:19.653Z,100088.56
2017-10-06T01:55:23.316Z,100091.73
2017-10-06T01:58:25.005Z,100093.60
2017-10-06T02:01:26.816Z,100083.03
2017-10-06T02:04:30.788Z,100078.41
2017-10-06T02:07:33.432Z,100081.21
2017-10-06T02:10:36.121Z,100085.86
2017-10-06T02:13:39.243Z,100093.05
2017-10-06T02:16:41.683Z,100092.77
2017-10-06T02:19:45.649Z,100085.90
2017-10-06T02:22:48.533Z,100082.73
2017-10-06T02:25:53.231Z,100086.55
2017-10-06T02:28:57.310Z,100083.29
2017-10-06T02:31:58.968Z,100084.09
2017-10-06T02:35:00.660Z,100081.88
2017-10-06T02:38:03.153Z,100079.23
2017-10-06T02:41:06.460Z,100081.29
2017-10-06T02:44:10.805Z,100079.89
2017-10-06T02:47:14.115Z,100078.06
2017-10-06T02:50:15.752Z,100097.56
2017-10-06T02:53:17.572Z,100078.30
2017-10-06T02:56:23.349Z,100084.30
2017-10-06T03:02:35.435Z,100073.80
2017-10-06T03:05:37.975Z,100068.58
2017-10-06T03:08:39.825Z,100081.81
2017-10-06T03:11:42.624Z,100079.75
2017-10-06T03:14:44.236Z,100086.17
2017-10-06T03:17:46.830Z,100077.75
2017-10-06T03:20:49.378Z,100085.27
2017-10-06T03:23:51.173Z,100075.05
2017-10-06T03:26:52.958Z,100079.20
2017-10-06T03:29:56.748Z,100079.45
2017-10-06T03:32:58.591Z,100087.22
2017-10-06T03:36:03.072Z,100085.31
2017-10-06T03:42:13.262Z,100090.19
2017-10-06T03:45:15.077Z,100086.32
2017-10-06T03:48:18.709Z,100082.80
2017-10-06T03:51:26.218Z,100090.80
2017-10-06T03:54:28.066Z,100089.66
2017-10-06T03:57:29.701Z,100074.56
2017-10-06T04:00:31.400Z,100085.42
2017-10-06T04:03:34.608Z,100079.58
2017-10-06T04:06:39.238Z,100079.50
2017-10-06T04:09:43.438Z,100085.91
2017-10-06T04:12:45.705Z,100091.41
2017-10-06T04:15:48.278Z,100079.56
2017-10-06T04:18:57.819Z,100084.81
2017-10-06T04:22:01.192Z,100066.93
2017-10-06T04:25:02.803Z,100076.27
2017-10-06T04:28:04.516Z,100074.08
2017-10-06T04:31:06.442Z,100079.11
2017-10-06T04:34:08.874Z,100078.10
2017-10-06T04:37:11.695Z,100078.13
2017-10-06T04:40:17.975Z,100086.16
2017-10-06T04:43:21.198Z,100084.31
2017-10-06T04:46:22.961Z,100088.30
2017-10-06T04:49:25.737Z,100094.95
2017-10-06T04:52:28.806Z,100089.90
2017-10-06T04:55:33.064Z,100083.41
2017-10-06T04:58:37.501Z,100085.27
2017-10-06T05:01:50.882Z,100086.25
2017-10-06T05:04:54.359Z,100092.95
2017-10-06T05:08:01.235Z,100097.73
2017-10-06T05:11:11.268Z,100093.00
2017-10-06T05:14:15.061Z,100097.64
2017-10-06T05:17:19.774Z,100096.79
2017-10-06T05:20:27.117Z,100107.47
2017-10-06T05:23:33.555Z,100098.12
2017-10-06T05:26:37.095Z,100081.77
2017-10-06T05:29:43.457Z,100102.84
2017-10-06T05:32:45.281Z,100095.34
2017-10-06T05:35:55.278Z,100096.72
2017-10-06T05:39:12.323Z,100095.39
2017-10-06T05:42:20.663Z,100106.14
2017-10-06T05:45:28.341Z,100103.25
2017-10-06T05:48:54.413Z,100109.72
2017-10-06T05:52:00.295Z,100098.46
2017-10-06T05:55:02.711Z,100108.92
2017-10-06T05:58:04.216Z,100099.33
2017-10-06T06:01:05.793Z,100112.86
2017-10-06T06:04:08.063Z,100105.92
2017-10-06T06:07:10.370Z,100111.31
2017-10-06T06:10:11.826Z,100112.42
2017-10-06T06:13:13.404Z,100112.55
2017-10-06T06:16:14.986Z,100116.10
2017-10-06T06:19:16.525Z,100120.92
2017-10-06T06:22:18.211Z,100122.78
2017-10-06T06:25:19.787Z,100122.16
2017-10-06T06:28:21.359Z,100118.72
2017-10-06T06:31:23.655Z,100123.11
2017-10-06T06:34:25.218Z,100127.72
2017-10-06T06:37:26.723Z,100120.50
2017-10-06T06:40:29.024Z,100132.14
2017-10-06T06:43:30.591Z,100132.71
2017-10-06T06:46:32.174Z,100138.19
2017-10-06T06:52:42.132Z,100144.98
2017-10-06T06:55:43.745Z,100154.41
2017-10-06T06:58:45.291Z,100144.74
2017-10-06T07:20:04.331Z,100149.28
2017-10-06T07:23:06.579Z,100156.95
2017-10-06T07:26:08.076Z,100149.70
2017-10-06T07:29:10.409Z,100155.20
2017-10-06T07:32:11.808Z,100151.70
2017-10-06T07:35:13.965Z,100159.22
2017-10-06T07:38:18.266Z,100166.60
2017-10-06T07:41:34.367Z,100175.53
2017-10-06T07:44:38.258Z,100167.44
2017-10-06T07:47:58.845Z,100171.22
2017-10-06T10:28:16.332Z,100373.59
2017-10-06T10:32:56.797Z,100381.17
2017-10-06T10:36:00.131Z,100384.69
2017-10-06T12:54:39.820Z,100420.55
2017-10-06T12:57:42.182Z,100423.16
2017-10-06T13:00:43.976Z,100407.06
2017-10-06T13:03:49.581Z,100419.47
2017-10-06T13:07:09.121Z,100437.07
2017-10-06T13:10:11.516Z,100430.38
2017-10-06T13:13:21.156Z,100439.46
2017-10-06T13:16:40.941Z,100438.70
2017-10-06T13:19:54.650Z,100431.58
2017-10-06T13:26:26.863Z,100436.75
2017-10-06T13:29:40.182Z,100430.03
2017-10-06T13:32:43.046Z,100428.31
2017-10-06T13:35:55.000Z,100419.83
2017-10-06T13:39:20.672Z,100418.06
2017-10-06T13:42:23.180Z,100427.66
2017-10-06T13:49:30.473Z,100418.56
2017-10-06T15:22:01.872Z,100474.13
2017-10-06T15:28:27.324Z,100474.72
2017-10-06T15:31:41.994Z,100472.27
2017-10-06T15:49:43.211Z,100498.92
2017-10-06T15:53:30.673Z,100498.75
2017-10-06T22:58:05.861Z,100833.11
2017-10-06T23:01:14.394Z,100835.14
2017-10-06T23:04:19.116Z,100839.33
2017-10-06T23:07:21.508Z,100835.41
2017-10-06T23:10:29.580Z,100840.09
2017-10-06T23:13:39.886Z,100839.95
2017-10-06T23:16:47.890Z,100839.20
2017-10-06T23:19:50.315Z,100844.36
2017-10-06T23:22:52.037Z,100853.38
2017-10-06T23:29:32.874Z,100835.75
2017-10-06T23:36:14.069Z,100836.09
2017-10-06T23:39:38.059Z,100839.84
2017-10-06T23:43:00.471Z,100838.64
2017-10-06T23:46:04.537Z,100841.92
2017-10-06T23:49:06.793Z,100849.34
2017-10-06T23:52:20.681Z,100834.51
2017-10-06T23:55:26.613Z,100844.63
2017-10-06T23:58:40.419Z,100842.23
